Time;durP1;ratioP1;P1;durP2;ratioP2;P2;SDS_P1;SDS_P2;PMS_P1;PMS_P2;Temp;Humidity;BMP_temperature;BMP_pressure;BME280_temperature;BME280_humidity;BME280_pressure;Samples;Min_cycle;Max_cycle;Signal;HPM_P1;HPM_P2
2021/07/02 00:00:12;;;;;;;2.40;2.20;;;;;;;17.10;68.85;98411.75;261896;1089;23337;-70
2021/07/02 00:05:22;;;;;;;2.37;2.17;;;;;;;17.06;69.33;98410.86;262318;1090;23198;-71
2021/07/02 00:10:27;;;;;;;3.10;2.80;;;;;;;16.99;69.77;98416.83;262237;1089;22760;-71
2021/07/02 00:15:33;;;;;;;3.35;2.75;;;;;;;16.93;69.97;98407.38;261796;1090;22823;-71
2021/07/02 00:20:39;;;;;;;2.85;2.45;;;;;;;16.78;70.18;98413.44;261751;1090;22794;-71
2021/07/02 00:25:44;;;;;;;2.65;2.45;;;;;;;16.68;70.41;98409.27;262660;1088;22763;-71
2021/07/02 00:31:00;;;;;;;3.10;2.30;;;;;;;16.65;70.51;98408.02;262686;1090;22793;-72
2021/07/02 00:36:11;;;;;;;3.67;2.40;;;;;;;16.62;70.85;98405.19;261788;1089;22774;-71
2021/07/02 00:41:14;;;;;;;3.55;2.55;;;;;;;16.55;70.89;98400.34;262245;1088;22917;-72
2021/07/02 00:46:34;;;;;;;2.85;2.65;;;;;;;16.49;71.33;98394.36;261964;1089;22772;-72
2021/07/02 00:51:38;;;;;;;2.40;2.20;;;;;;;16.45;71.35;98393.45;262251;1090;22918;-71
2021/07/02 00:56:43;;;;;;;2.65;2.45;;;;;;;16.38;71.58;98380.52;261803;1090;22763;-71
2021/07/02 01:02:18;;;;;;;;;;;;;;;;;;;;;
2021/07/02 01:08:08;;;;;;;2.30;2.13;;;;;;;16.31;71.93;98395.70;262045;1090;22863;-72
2021/07/02 01:13:30;;;;;;;3.00;2.60;;;;;;;16.28;72.20;98399.86;262903;1088;22805;-71
2021/07/02 01:18:39;;;;;;;2.40;1.90;;;;;;;16.23;72.51;98405.50;262378;1090;22819;-72
2021/07/02 01:23:45;;;;;;;2.80;2.60;;;;;;;16.12;72.70;98407.02;262795;1089;22826;-71
2021/07/02 01:29:02;;;;;;;3.10;2.70;;;;;;;16.00;73.07;98407.79;262181;1090;22934;-72
2021/07/02 01:34:09;;;;;;;3.03;2.53;;;;;;;15.94;73.43;98390.22;261785;1090;25941;-71
2021/07/02 01:39:16;;;;;;;3.20;2.90;;;;;;;15.91;73.62;98388.97;261897;1090;22776;-72
2021/07/02 01:44:22;;;;;;;3.60;2.85;;;;;;;15.89;73.65;98396.61;262253;1089;26200;-71
2021/07/02 01:49:30;;;;;;;3.40;3.10;;;;;;;15.89;73.82;98396.61;262627;1089;22804;-72
2021/07/02 01:54:36;;;;;;;4.95;3.35;;;;;;;15.90;74.22;98396.27;262285;1090;22814;-72
2021/07/02 01:59:39;;;;;;;3.50;3.20;;;;;;;15.93;74.43;98394.81;262508;1089;22787;-71
2021/07/02 02:04:53;;;;;;;3.75;3.40;;;;;;;15.93;74.26;98407.55;262242;1088;22783;-70
2021/07/02 02:10:01;;;;;;;3.80;3.25;;;;;;;15.97;74.41;98408.46;262485;1090;22852;-72
2021/07/02 02:15:24;;;;;;;3.60;3.15;;;;;;;15.99;74.54;98400.80;262587;1090;22837;-71
2021/07/02 02:20:34;;;;;;;4.07;3.20;;;;;;;15.99;74.61;98403.50;262186;1089;26076;-73
2021/07/02 02:25:41;;;;;;;4.55;3.55;;;;;;;15.99;74.81;98400.80;262549;1089;22772;-70
2021/07/02 02:30:46;;;;;;;4.25;3.25;;;;;;;15.97;74.91;98398.44;262289;1090;22914;-72
2021/07/02 02:35:54;;;;;;;4.80;3.97;;;;;;;15.96;74.88;98390.66;262343;1090;22766;-72
2021/07/02 02:41:01;;;;;;;5.00;3.70;;;;;;;15.87;74.85;98386.13;262770;1089;22926;-71
2021/07/02 02:46:11;;;;;;;4.80;3.57;;;;;;;15.79;75.10;98399.70;262639;1089;27549;-71
2021/07/02 02:51:16;;;;;;;5.23;3.90;;;;;;;15.79;75.36;98405.09;262435;1090;22916;-72
2021/07/02 02:56:20;;;;;;;6.05;3.80;;;;;;;15.81;75.36;98406.38;262375;1090;22772;-72
2021/07/02 03:01:26;;;;;;;5.17;3.67;;;;;;;15.85;75.70;98407.30;261727;1089;22783;-72
2021/07/02 03:06:30;;;;;;;6.25;3.95;;;;;;;15.87;75.64;98413.14;262636;1090;22890;-71
2021/07/02 03:11:59;;;;;;;4.90;4.05;;;;;;;15.90;75.94;98409.77;262299;1090;23460;-72
2021/07/02 03:17:58;;;;;;;6.00;4.00;;;;;;;15.97;75.97;98411.94;262624;1090;22763;-71
2021/07/02 03:23:04;;;;;;;4.87;4.17;;;;;;;16.02;76.02;98403.64;261753;1090;22952;-72
2021/07/02 03:28:09;;;;;;;4.25;3.80;;;;;;;16.07;75.79;98403.44;261914;1090;22860;-71
2021/07/02 03:33:16;;;;;;;4.40;3.85;;;;;;;16.17;76.00;98417.63;262287;1089;22792;-72
2021/07/02 03:38:23;;;;;;;5.65;4.00;;;;;;;16.23;75.98;98419.78;262330;1090;22848;-72
2021/07/02 03:43:31;;;;;;;7.43;4.13;;;;;;;16.30;75.88;98431.95;262681;1088;22747;-72
2021/07/02 03:48:37;;;;;;;7.68;4.33;;;;;;;16.33;75.71;98429.38;262295;1089;22850;-72
2021/07/02 03:53:49;;;;;;;5.53;4.43;;;;;;;16.36;75.65;98425.22;261781;1090;22781;-72
2021/07/02 03:58:52;;;;;;;5.15;4.35;;;;;;;16.32;75.85;98432.42;262288;1090;22767;-72
2021/07/02 04:03:58;;;;;;;5.70;4.80;;;;;;;16.33;76.08;98434.01;262280;1090;22770;-72
2021/07/02 04:15:19;;;;;;;6.97;4.77;;;;;;;16.68;76.01;98441.72;262519;1090;25827;-72
2021/07/02 04:20:32;;;;;;;6.57;4.83;;;;;;;16.95;75.44;98442.98;262459;1090;22882;-72
2021/07/02 04:25:36;;;;;;;5.30;4.80;;;;;;;17.22;75.34;98446.92;261420;1090;28839;-71
2021/07/02 04:30:43;;;;;;;6.00;4.60;;;;;;;17.32;74.87;98453.80;262780;1090;28796;-71
2021/07/02 04:35:52;;;;;;;4.90;4.35;;;;;;;17.23;74.34;98451.19;261745;1089;22824;-71
2021/07/02 04:41:10;;;;;;;5.00;4.60;;;;;;;17.30;74.77;98452.55;261793;1089;26321;-71
2021/07/02 04:47:05;;;;;;;11.13;5.57;;;;;;;17.53;74.65;98461.76;262111;1090;26238;-71
2021/07/02 04:52:51;;;;;;;7.60;5.45;;;;;;;17.66;74.24;98461.73;261669;1090;22972;-71
2021/07/02 04:58:54;;;;;;;5.55;5.05;;;;;;;17.82;73.73;98456.37;261960;1090;26322;-72
2021/07/02 05:05:20;;;;;;;4.85;4.45;;;;;;;18.02;73.13;98457.33;261781;1088;22817;-71
2021/07/02 05:11:02;;;;;;;5.10;4.40;;;;;;;18.15;73.02;98458.86;261769;1090;22770;-72
2021/07/02 05:16:37;;;;;;;4.15;3.75;;;;;;;18.23;71.99;98455.20;261857;1090;22844;-72
2021/07/02 05:22:21;;;;;;;4.40;4.00;;;;;;;18.23;72.08;98457.92;262586;1090;22995;-72
2021/07/02 05:33:01;;;;;;;3.20;3.00;;;;;;;18.04;71.61;98460.49;261715;1090;22840;-71
2021/07/02 05:38:04;;;;;;;4.70;4.15;;;;;;;18.01;71.40;98472.03;261889;1090;22824;-71
2021/07/02 05:43:07;;;;;;;3.95;3.60;;;;;;;17.94;71.36;98473.39;261804;1090;22738;-72
2021/07/02 05:48:16;;;;;;;3.95;3.65;;;;;;;17.86;71.42;98487.84;261882;1090;22800;-73
2021/07/02 05:53:20;;;;;;;4.10;3.70;;;;;;;17.81;71.40;98490.81;262443;1090;26270;-72
2021/07/02 05:58:24;;;;;;;3.55;3.00;;;;;;;17.87;71.27;98486.72;262210;1090;22876;-73
2021/07/02 06:03:28;;;;;;;3.65;3.30;;;;;;;18.11;71.06;98485.86;261842;1090;22769;-72
2021/07/02 06:08:57;;;;;;;3.60;3.30;;;;;;;18.47;70.83;98491.46;262858;1088;22810;-73
2021/07/02 06:14:01;;;;;;;3.55;3.25;;;;;;;18.96;70.92;98493.09;262873;1088;22818;-73
2021/07/02 06:19:06;;;;;;;3.10;2.80;;;;;;;19.42;69.19;98493.38;262890;1088;23247;-74
2021/07/02 06:24:10;;;;;;;3.95;3.60;;;;;;;19.56;68.73;98492.91;262545;1089;23023;-74
2021/07/02 06:29:20;;;;;;;3.45;3.15;;;;;;;19.55;67.98;98494.04;263421;1090;22767;-73
2021/07/02 06:34:44;;;;;;;4.70;3.30;;;;;;;19.47;67.28;98495.02;262244;1090;22780;-73
2021/07/02 06:39:48;;;;;;;3.13;2.83;;;;;;;19.44;67.32;98504.66;262153;1090;22766;-73
2021/07/02 06:44:52;;;;;;;5.10;3.13;;;;;;;19.60;66.84;98498.40;262396;1090;25970;-72
2021/07/02 06:50:23;;;;;;;4.23;3.15;;;;;;;19.99;66.16;98491.11;262435;1090;22921;-73
2021/07/02 06:55:27;;;;;;;3.70;2.83;;;;;;;20.30;65.00;98481.20;262637;1090;23449;-72
2021/07/02 07:00:31;;;;;;;3.05;2.50;;;;;;;20.50;64.25;98490.11;262631;1089;22765;-74
2021/07/02 07:05:41;;;;;;;3.70;2.50;;;;;;;20.68;63.99;98495.12;262447;1088;22843;-73
2021/07/02 07:10:58;;;;;;;3.70;2.60;;;;;;;20.80;63.16;98489.50;262292;1090;22763;-73
2021/07/02 07:16:25;;;;;;;2.55;2.00;;;;;;;21.02;62.85;98479.71;262760;1088;25973;-73
2021/07/02 07:21:44;;;;;;;2.13;1.90;;;;;;;21.26;61.95;98490.58;262327;1089;26325;-72
2021/07/02 07:26:56;;;;;;;1.70;1.60;;;;;;;21.35;60.73;98478.27;262488;1090;22828;-72
2021/07/02 07:32:01;;;;;;;1.80;1.70;;;;;;;21.48;60.00;98488.95;262760;1090;22799;-73
2021/07/02 07:37:12;;;;;;;2.03;1.73;;;;;;;21.49;59.55;98483.13;262544;1090;22924;-73
2021/07/02 07:42:27;;;;;;;1.90;1.80;;;;;;;21.43;59.05;98483.81;262437;1090;26258;-74
2021/07/02 07:47:48;;;;;;;2.15;1.95;;;;;;;21.49;58.89;98491.30;262162;1090;22825;-72
2021/07/02 07:52:58;;;;;;;1.98;1.88;;;;;;;21.75;59.32;98495.16;262170;1090;22764;-72
2021/07/02 07:58:42;;;;;;;2.33;2.23;;;;;;;21.95;58.43;98487.64;262265;1090;23520;-73
2021/07/02 08:03:47;;;;;;;2.15;2.00;;;;;;;22.23;58.14;98486.37;262917;1088;22831;-72
2021/07/02 08:09:12;;;;;;;2.00;1.90;;;;;;;22.28;57.04;98498.91;261998;1089;26072;-73
2021/07/02 08:15:20;;;;;;;2.50;2.13;;;;;;;22.16;56.98;98499.94;262371;1089;22760;-72
2021/07/02 08:20:26;;;;;;;2.40;2.13;;;;;;;22.27;56.43;98495.38;262494;1090;22766;-73
2021/07/02 08:25:33;;;;;;;2.68;2.20;;;;;;;22.27;56.67;98500.06;262594;1090;22786;-73
2021/07/02 08:30:39;;;;;;;2.00;1.90;;;;;;;22.19;56.46;98499.21;262428;1088;24042;-72
2021/07/02 08:35:54;;;;;;;2.10;2.00;;;;;;;22.17;55.99;98504.23;262746;1090;22793;-73
2021/07/02 08:41:02;;;;;;;;;;;;;;;22.26;55.91;98496.55;262387;1088;22914;-72
2021/07/02 08:52:17;;;;;;;2.08;1.98;;;;;;;22.65;55.36;98490.73;262589;1090;22768;-72
2021/07/02 08:57:24;;;;;;;2.60;2.40;;;;;;;22.70;55.34;98498.56;262630;1089;22769;-73
2021/07/02 09:02:30;;;;;;;2.23;2.13;;;;;;;22.70;54.74;98493.10;262227;1090;22854;-73
2021/07/02 09:07:42;;;;;;;2.53;2.40;;;;;;;22.94;54.95;98492.91;262335;1089;22810;-72
2021/07/02 09:18:20;;;;;;;2.85;2.65;;;;;;;23.14;54.00;98499.74;262801;1090;22887;-72
2021/07/02 09:23:38;;;;;;;5.33;4.90;;;;;;;23.49;54.55;98494.88;262895;1090;24330;-72
2021/07/02 09:28:45;;;;;;;2.73;2.53;;;;;;;23.67;52.73;98492.23;262525;1090;22848;-73
2021/07/02 09:33:55;;;;;;;3.85;3.38;;;;;;;23.76;53.03;98489.95;262740;1089;25302;-73
2021/07/02 09:39:28;;;;;;;5.97;3.97;;;;;;;23.94;53.09;98486.52;263027;1089;22807;-72
2021/07/02 09:44:35;;;;;;;3.15;2.80;;;;;;;24.19;52.35;98490.13;268507;1090;22769;-72
2021/07/02 09:49:39;;;;;;;3.50;3.18;;;;;;;24.30;51.44;98495.61;262740;1090;24347;-72
2021/07/02 09:55:34;;;;;;;;;;;;;;;;;;;;;
2021/07/02 10:01:00;;;;;;;5.05;2.93;;;;;;;23.83;51.42;98491.94;263061;1088;25862;-73
2021/07/02 10:06:14;;;;;;;3.05;2.78;;;;;;;23.58;51.58;98498.05;263115;1090;25877;-72
2021/07/02 10:11:18;;;;;;;3.30;3.00;;;;;;;23.44;52.06;98487.83;267169;1088;22763;-72
2021/07/02 10:16:24;;;;;;;2.80;2.60;;;;;;;23.54;52.10;98491.78;264266;1090;22789;-71
2021/07/02 10:21:29;;;;;;;17.80;14.85;;;;;;;23.86;52.47;98493.89;262476;1089;22766;-72
2021/07/02 10:26:36;;;;;;;4.63;4.23;;;;;;;24.00;51.16;98483.03;262905;1090;22914;-72
2021/07/02 10:31:51;;;;;;;3.10;2.85;;;;;;;24.07;51.52;98496.73;263152;1089;22830;-72
2021/07/02 10:37:06;;;;;;;3.63;3.33;;;;;;;24.07;51.08;98496.73;262705;1089;22766;-71
2021/07/02 10:42:14;;;;;;;5.90;5.30;;;;;;;24.20;51.52;98480.77;262804;1088;24307;-72
2021/07/02 10:47:51;;;;;;;4.85;4.45;;;;;;;23.75;50.43;98486.41;262492;1090;23446;-72
2021/07/02 10:53:39;;;;;;;5.10;3.53;;;;;;;22.93;50.89;98489.41;262425;1089;22787;-71
2021/07/02 10:59:13;;;;;;;3.80;3.20;;;;;;;22.54;51.92;98495.31;262827;1090;25832;-71
2021/07/02 11:05:01;;;;;;;3.30;2.93;;;;;;;22.30;52.38;98485.66;262882;1089;22764;-72
2021/07/02 11:11:07;;;;;;;3.85;3.55;;;;;;;22.34;52.60;98497.43;262593;1089;22844;-71
2021/07/02 11:16:25;;;;;;;4.15;3.60;;;;;;;22.51;52.65;98496.04;262484;1090;22804;-71
2021/07/02 11:21:29;;;;;;;4.63;4.33;;;;;;;22.80;52.77;98490.85;263071;1090;22790;-71
2021/07/02 11:26:41;;;;;;;4.60;4.20;;;;;;;23.07;52.77;98488.73;262796;1089;22796;-71
2021/07/02 11:31:44;;;;;;;4.20;3.90;;;;;;;23.51;52.50;98479.66;263012;1088;25744;-71
2021/07/02 11:37:08;;;;;;;4.03;3.70;;;;;;;24.04;51.92;98489.30;265235;1089;22970;-72
2021/07/02 11:42:17;;;;;;;2.97;2.67;;;;;;;24.36;49.61;98482.36;264092;1089;22931;-71
2021/07/02 11:47:36;;;;;;;2.60;2.38;;;;;;;24.92;49.71;98474.61;262509;1089;22835;-71
2021/07/02 11:52:43;;;;;;;2.50;2.40;;;;;;;25.13;48.76;98479.28;262155;1089;22766;-72
2021/07/02 11:58:15;;;;;;;3.20;3.00;;;;;;;24.93;48.48;98476.95;262939;1089;22765;-72
2021/07/02 12:03:22;;;;;;;2.73;2.55;;;;;;;24.67;48.43;98471.87;262431;1089;22776;-71
2021/07/02 12:08:28;;;;;;;2.90;2.70;;;;;;;24.60;47.43;98469.88;262765;1089;22915;-72
2021/07/02 12:13:34;;;;;;;2.83;2.63;;;;;;;24.55;48.54;98464.77;262863;1089;22988;-72
2021/07/02 12:18:40;;;;;;;2.85;2.65;;;;;;;24.63;48.40;98444.47;263208;1090;22852;-72
2021/07/02 12:23:45;;;;;;;3.80;3.50;;;;;;;24.54;48.05;98463.20;262588;1090;23620;-72
2021/07/02 12:29:04;;;;;;;3.45;3.05;;;;;;;24.40;48.08;98448.34;262568;1090;25980;-72
2021/07/02 12:34:35;;;;;;;3.10;2.80;;;;;;;24.34;48.34;98449.88;262661;1090;26274;-72
2021/07/02 12:39:39;;;;;;;3.30;3.10;;;;;;;24.09;47.79;98447.89;262696;1088;22845;-72
2021/07/02 12:44:54;;;;;;;3.13;2.93;;;;;;;24.15;49.40;98434.61;262760;1090;22796;-72
2021/07/02 12:50:04;;;;;;;2.40;2.30;;;;;;;24.25;48.06;98442.05;263005;1090;22770;-71
2021/07/02 12:55:20;;;;;;;2.88;2.60;;;;;;;23.92;48.71;98434.94;262962;1089;23898;-71
2021/07/02 13:00:35;;;;;;;2.73;2.53;;;;;;;23.98;49.05;98430.67;263278;1090;22764;-71
2021/07/02 13:06:15;;;;;;;3.30;3.10;;;;;;;24.16;49.27;98424.44;263905;1090;26258;-72
2021/07/02 13:11:20;;;;;;;4.17;3.60;;;;;;;24.25;49.17;98427.59;262550;1090;22800;-72
2021/07/02 13:16:25;;;;;;;2.55;2.35;;;;;;;24.16;48.88;98427.17;262809;1090;22767;-70
2021/07/02 13:21:33;;;;;;;2.38;2.28;;;;;;;24.15;48.24;98422.87;262800;1088;22943;-71
2021/07/02 13:26:40;;;;;;;2.70;2.50;;;;;;;24.18;48.40;98433.06;262875;1088;26504;-71
2021/07/02 13:31:52;;;;;;;2.85;2.63;;;;;;;24.30;48.37;98423.69;263342;1088;22780;-71
2021/07/02 13:37:00;;;;;;;2.18;2.08;;;;;;;24.43;47.96;98422.92;262884;1089;25970;-71
2021/07/02 13:42:21;;;;;;;2.70;2.35;;;;;;;24.52;46.47;98429.97;262947;1089;22773;-71
2021/07/02 13:47:35;;;;;;;2.63;2.43;;;;;;;24.52;46.97;98422.52;263214;1089;25431;-71
2021/07/02 13:52:39;;;;;;;3.25;2.95;;;;;;;24.72;48.07;98428.44;262752;1089;22742;-71
2021/07/02 13:57:46;;;;;;;3.13;2.93;;;;;;;24.83;47.23;98433.12;262741;1090;22787;-72
2021/07/02 14:02:50;;;;;;;3.33;3.00;;;;;;;24.65;47.59;98427.64;262741;1088;22787;-72
2021/07/02 14:07:54;;;;;;;3.15;2.68;;;;;;;24.35;47.72;98426.81;262901;1089;22767;-72
2021/07/02 14:12:57;;;;;;;3.20;2.85;;;;;;;24.14;47.78;98426.80;263019;1089;26224;-72
2021/07/02 14:18:05;;;;;;;2.83;2.58;;;;;;;24.35;47.60;98426.81;262586;1089;23609;-72
2021/07/02 14:23:38;;;;;;;2.70;2.50;;;;;;;24.71;47.03;98431.58;262493;1089;22760;-71
2021/07/02 14:28:40;;;;;;;2.30;2.20;;;;;;;24.92;45.79;98433.52;262265;1090;22768;-72
2021/07/02 14:33:49;;;;;;;3.15;2.50;;;;;;;24.88;45.63;98428.03;262789;1090;22861;-72
2021/07/02 14:38:53;;;;;;;2.05;1.95;;;;;;;24.81;45.04;98438.99;262758;1089;22763;-72
2021/07/02 14:43:56;;;;;;;2.40;2.20;;;;;;;24.79;44.97;98438.59;262522;1089;22763;-71
2021/07/02 14:49:03;;;;;;;2.60;2.40;;;;;;;24.83;45.08;98430.38;262604;1089;22807;-71
2021/07/02 14:54:07;;;;;;;2.90;2.50;;;;;;;25.11;44.81;98438.58;262908;1089;23186;-72
2021/07/02 14:59:13;;;;;;;2.83;2.47;;;;;;;25.41;44.89;98439.31;262330;1090;22793;-71
2021/07/02 15:04:35;;;;;;;3.53;3.00;;;;;;;25.64;44.35;98441.57;262681;1090;25832;-72
2021/07/02 15:09:39;;;;;;;3.43;3.13;;;;;;;25.67;44.17;98434.52;261897;1090;22790;-71
2021/07/02 15:14:55;;;;;;;3.88;3.55;;;;;;;25.59;44.29;98433.77;262403;1088;22900;-71
2021/07/02 15:20:01;;;;;;;3.30;3.00;;;;;;;25.53;43.84;98435.34;262446;1090;28320;-73
2021/07/02 15:25:06;;;;;;;3.10;2.80;;;;;;;25.23;44.02;98436.59;262532;1089;22795;-72
2021/07/02 15:30:48;;;;;;;3.25;3.03;;;;;;;24.86;44.85;98435.87;262449;1089;26270;-72
2021/07/02 15:35:59;;;;;;;;;;;;;;;24.59;45.43;98425.26;262759;1090;28105;-72
2021/07/02 15:41:47;;;;;;;3.00;2.80;;;;;;;24.48;45.34;98426.44;261854;1088;24486;-72
2021/07/02 15:47:00;;;;;;;3.40;3.10;;;;;;;24.40;45.92;98431.91;262594;1089;22851;-72
2021/07/02 15:52:08;;;;;;;2.70;2.50;;;;;;;24.46;45.69;98428.80;262562;1089;23132;-70
2021/07/02 15:57:16;;;;;;;2.90;2.70;;;;;;;24.34;45.97;98441.66;262330;1090;23035;-71
2021/07/02 16:02:20;;;;;;;2.60;2.40;;;;;;;24.18;46.25;98438.53;262301;1089;24333;-71
2021/07/02 16:07:26;;;;;;;2.85;2.65;;;;;;;24.02;46.84;98436.94;261930;1090;23316;-72
2021/07/02 16:12:39;;;;;;;2.68;2.48;;;;;;;23.83;47.34;98440.75;262610;1089;22766;-72
2021/07/02 16:17:45;;;;;;;2.80;2.60;;;;;;;23.76;48.02;98440.72;262234;1090;23351;-73
2021/07/02 16:22:48;;;;;;;2.53;2.38;;;;;;;23.71;48.57;98443.81;262562;1089;22767;-71
2021/07/02 16:27:52;;;;;;;3.23;2.15;;;;;;;23.50;48.80;98441.77;262746;1090;22844;-71
2021/07/02 16:32:55;;;;;;;2.50;2.40;;;;;;;23.37;49.89;98444.83;262268;1090;22838;-72
2021/07/02 16:38:08;;;;;;;2.43;2.28;;;;;;;23.31;49.95;98445.56;262560;1088;25938;-72
2021/07/02 16:43:17;;;;;;;2.53;1.88;;;;;;;23.14;50.23;98455.23;262443;1090;25970;-72
2021/07/02 16:48:21;;;;;;;2.15;1.95;;;;;;;22.98;50.49;98458.22;262734;1089;22860;-71
2021/07/02 16:53:24;;;;;;;1.80;1.70;;;;;;;22.72;51.37;98466.22;262265;1090;27082;-71
2021/07/02 16:58:31;;;;;;;2.70;2.50;;;;;;;22.24;52.34;98471.58;261871;1090;22793;-71
2021/07/02 17:03:35;;;;;;;5.20;2.80;;;;;;;21.86;53.44;98481.67;261848;1090;22918;-72
2021/07/02 17:08:57;;;;;;;3.37;2.80;;;;;;;21.53;54.25;98475.02;261933;1090;22796;-71
2021/07/02 17:14:01;;;;;;;3.90;2.95;;;;;;;21.36;54.71;98493.47;262081;1090;24061;-72
2021/07/02 17:19:05;;;;;;;5.18;3.20;;;;;;;21.05;55.61;98497.27;262275;1090;22858;-71
2021/07/02 17:24:10;;;;;;;4.10;2.80;;;;;;;20.78;56.39;98504.61;262408;1090;25858;-73
2021/07/02 17:29:16;;;;;;;3.68;3.20;;;;;;;20.62;56.96;98508.21;262391;1090;25864;-72
2021/07/02 17:34:22;;;;;;;3.58;3.15;;;;;;;20.49;57.74;98504.08;262569;1089;26245;-72
2021/07/02 17:39:27;;;;;;;3.77;2.80;;;;;;;20.26;58.36;98506.74;262562;1089;25865;-72
2021/07/02 17:44:33;;;;;;;3.45;3.15;;;;;;;20.03;58.77;98499.31;262387;1090;22770;-72
2021/07/02 17:49:39;;;;;;;3.57;3.27;;;;;;;19.81;59.61;98507.05;262657;1089;22793;-72
2021/07/02 17:54:56;;;;;;;3.20;2.90;;;;;;;19.60;60.12;98498.40;262770;1089;22801;-72
2021/07/02 18:05:45;;;;;;;3.20;2.83;;;;;;;19.20;61.75;98497.53;262894;1088;22831;-73
2021/07/02 18:10:49;;;;;;;3.53;2.63;;;;;;;19.08;62.68;98505.77;262300;1089;22860;-71
2021/07/02 18:15:53;;;;;;;3.35;2.70;;;;;;;19.01;62.58;98498.23;261904;1090;24064;-73
2021/07/02 18:20:57;;;;;;;4.33;2.80;;;;;;;18.96;62.91;98504.73;261917;1089;22796;-72
2021/07/02 18:26:01;;;;;;;2.90;2.60;;;;;;;18.87;62.83;98490.53;261972;1090;22793;-72
2021/07/02 18:31:05;;;;;;;3.85;2.20;;;;;;;18.81;63.44;98497.34;262926;1090;24165;-71
2021/07/02 18:36:09;;;;;;;2.90;2.30;;;;;;;18.77;63.59;98491.81;262725;1090;22921;-71
2021/07/02 18:41:14;;;;;;;2.83;2.10;;;;;;;18.70;63.69;98493.58;262466;1088;22789;-71
2021/07/02 18:46:40;;;;;;;3.70;2.10;;;;;;;18.59;64.25;98507.67;262921;1089;22815;-71
2021/07/02 18:51:43;;;;;;;2.70;2.20;;;;;;;18.54;64.70;98504.42;262417;1088;22861;-73
2021/07/02 18:57:00;;;;;;;2.50;2.30;;;;;;;18.44;64.96;98495.65;262439;1090;22814;-72
2021/07/02 19:02:04;;;;;;;1.90;1.80;;;;;;;18.38;65.22;98501.67;262308;1089;22787;-74
2021/07/02 19:07:33;;;;;;;2.55;1.65;;;;;;;18.31;65.55;98496.84;261917;1090;22857;-71
2021/07/02 19:13:29;;;;;;;2.35;2.00;;;;;;;18.24;65.50;98510.20;262652;1088;22785;-71
2021/07/02 19:19:06;;;;;;;2.03;1.77;;;;;;;18.19;66.20;98513.16;262449;1090;22805;-72
2021/07/02 19:24:09;;;;;;;2.25;1.40;;;;;;;18.13;66.66;98507.19;262452;1089;22778;-72
2021/07/02 19:29:14;;;;;;;1.85;1.75;;;;;;;18.09;66.88;98504.40;262286;1090;22978;-72
2021/07/02 19:34:17;;;;;;;2.13;1.50;;;;;;;18.02;67.02;98514.23;262838;1090;23044;-71
2021/07/02 19:39:22;;;;;;;1.60;1.50;;;;;;;17.94;67.56;98516.75;262666;1089;27501;-72
2021/07/02 19:44:35;;;;;;;2.10;1.70;;;;;;;17.88;67.88;98518.11;262591;1090;23206;-72
2021/07/02 19:49:57;;;;;;;1.60;1.30;;;;;;;17.86;68.47;98530.41;262672;1090;22792;-72
2021/07/02 19:55:01;;;;;;;1.70;1.60;;;;;;;17.81;68.38;98530.64;262345;1089;25305;-72
2021/07/02 20:00:08;;;;;;;2.25;1.70;;;;;;;17.76;68.91;98516.20;262351;1089;22971;-73
2021/07/02 20:05:13;;;;;;;1.45;1.00;;;;;;;17.73;68.69;98516.89;261903;1090;26897;-72
2021/07/02 20:10:23;;;;;;;1.70;1.40;;;;;;;17.68;69.22;98522.53;261935;1089;22799;-71
2021/07/02 20:15:31;;;;;;;2.15;1.35;;;;;;;17.63;69.31;98514.66;262737;1090;22985;-73
2021/07/02 20:20:35;;;;;;;2.10;1.30;;;;;;;17.60;69.58;98513.42;262280;1090;24332;-72
2021/07/02 20:25:45;;;;;;;3.00;1.27;;;;;;;17.54;70.06;98514.77;262286;1090;22786;-73
2021/07/02 20:30:49;;;;;;;1.60;1.50;;;;;;;17.50;70.14;98513.90;262423;1090;25858;-71
2021/07/02 20:35:54;;;;;;;2.00;1.70;;;;;;;17.46;70.40;98521.13;262695;1090;22754;-72
2021/07/02 20:40:57;;;;;;;2.43;1.70;;;;;;;17.44;70.49;98523.37;262431;1090;22863;-71
2021/07/02 20:46:03;;;;;;;2.85;2.20;;;;;;;17.40;70.94;98525.17;262570;1089;22778;-72
2021/07/02 20:51:06;;;;;;;2.57;2.30;;;;;;;17.35;71.27;98517.27;262676;1088;25181;-73
2021/07/02 20:56:12;;;;;;;2.63;1.90;;;;;;;17.28;71.52;98528.69;262227;1090;22802;-73
2021/07/02 21:01:34;;;;;;;2.65;1.60;;;;;;;17.19;71.98;98525.30;262213;1090;25861;-72
2021/07/02 21:06:46;;;;;;;2.83;1.97;;;;;;;17.08;72.40;98525.75;261884;1090;25407;-72
2021/07/02 21:11:50;;;;;;;4.30;2.05;;;;;;;16.92;72.97;98533.72;262397;1090;23007;-71
2021/07/02 21:16:55;;;;;;;2.80;2.15;;;;;;;16.82;73.69;98539.55;262379;1090;25858;-73
2021/07/02 21:22:01;;;;;;;2.15;1.70;;;;;;;16.68;73.71;98544.48;262257;1090;22763;-72
2021/07/02 21:27:04;;;;;;;3.25;2.05;;;;;;;16.58;74.34;98534.88;262504;1090;22929;-71
2021/07/02 21:32:11;;;;;;;2.40;1.60;;;;;;;16.53;74.43;98533.16;262667;1090;26229;-72
2021/07/02 21:37:15;;;;;;;2.53;1.60;;;;;;;16.52;74.85;98531.60;262496;1090;26583;-73
2021/07/02 21:42:19;;;;;;;2.80;1.30;;;;;;;16.52;75.13;98537.01;262546;1090;22777;-72
2021/07/02 21:47:22;;;;;;;4.23;1.63;;;;;;;16.52;75.23;98537.01;262603;1090;22795;-72
2021/07/02 21:52:26;;;;;;;1.95;1.65;;;;;;;16.52;75.85;98526.20;262239;1089;22786;-73
2021/07/02 21:57:29;;;;;;;1.83;1.73;;;;;;;16.55;76.02;98533.63;262543;1088;22790;-71
2021/07/02 22:02:33;;;;;;;1.65;1.55;;;;;;;16.53;75.89;98541.27;262547;1090;22787;-72
2021/07/02 22:07:37;;;;;;;2.00;1.55;;;;;;;16.50;76.20;98528.42;261948;1090;23430;-72
2021/07/02 22:13:00;;;;;;;2.90;1.60;;;;;;;16.48;76.13;98525.28;262226;1090;22945;-73
2021/07/02 22:18:17;;;;;;;3.10;1.75;;;;;;;16.46;76.49;98529.44;262419;1090;22940;-72
2021/07/02 22:23:21;;;;;;;2.90;2.30;;;;;;;16.42;76.70;98535.52;262525;1090;22760;-72
2021/07/02 22:28:24;;;;;;;4.03;2.80;;;;;;;16.40;77.09;98526.93;262766;1090;22763;-72
2021/07/02 22:33:31;;;;;;;3.40;2.40;;;;;;;16.39;76.96;98538.08;262718;1088;22822;-73
2021/07/02 22:38:34;;;;;;;3.93;2.60;;;;;;;16.36;77.19;98536.83;262508;1089;22768;-72
2021/07/02 22:43:41;;;;;;;3.73;2.17;;;;;;;16.39;77.61;98538.08;262472;1088;22787;-73
2021/07/02 22:48:44;;;;;;;2.70;2.40;;;;;;;16.36;77.40;98542.23;262787;1090;22873;-72
2021/07/02 22:53:48;;;;;;;2.45;2.25;;;;;;;16.37;77.87;98549.23;262815;1088;22799;-72
2021/07/02 22:58:51;;;;;;;2.90;2.50;;;;;;;16.42;77.79;98537.41;262534;1090;22771;-72
2021/07/02 23:03:54;;;;;;;2.63;2.43;;;;;;;16.43;77.93;98539.00;262416;1090;25980;-73
2021/07/02 23:08:58;;;;;;;2.65;2.45;;;;;;;16.41;78.00;98533.12;262923;1090;22818;-73
2021/07/02 23:14:01;;;;;;;3.33;2.70;;;;;;;16.40;78.20;98539.67;262507;1089;25341;-72
2021/07/02 23:19:05;;;;;;;2.60;2.30;;;;;;;16.42;78.20;98532.00;262414;1088;24320;-75
2021/07/02 23:24:10;;;;;;;2.70;2.50;;;;;;;16.40;78.42;98523.45;262644;1090;22921;-72
2021/07/02 23:29:13;;;;;;;3.20;2.85;;;;;;;16.41;78.48;98528.52;262825;1090;22793;-72
2021/07/02 23:34:18;;;;;;;3.00;2.65;;;;;;;16.37;78.51;98524.90;262410;1089;22787;-72
2021/07/02 23:39:22;;;;;;;3.87;3.40;;;;;;;16.37;78.68;98521.42;262459;1090;22764;-72
2021/07/02 23:44:25;;;;;;;4.55;3.40;;;;;;;16.39;78.72;98522.64;262400;1088;22811;-73
2021/07/02 23:49:29;;;;;;;4.10;3.35;;;;;;;16.38;78.95;98509.46;262692;1090;22896;-73
2021/07/02 23:54:39;;;;;;;3.70;3.20;;;;;;;16.35;78.84;98515.53;262364;1090;22773;-74
